createdAt,value
2019-03-21T00:03:49.974Z,47.19
2019-03-21T00:08:52.109Z,47.33
2019-03-21T00:14:06.663Z,47.54
2019-03-21T00:19:01.024Z,47.55
2019-03-21T00:24:03.523Z,47.49
2019-03-21T00:29:05.857Z,47.55
2019-03-21T00:34:08.172Z,47.71
2019-03-21T00:39:10.447Z,47.68
2019-03-21T00:44:18.152Z,47.68
2019-03-21T00:49:16.855Z,47.75
2019-03-21T00:54:19.142Z,47.90
2019-03-21T00:59:21.329Z,48.02
2019-03-21T01:04:26.844Z,48.04
2019-03-21T01:09:29.124Z,48.04
2019-03-21T01:14:31.395Z,48.12
2019-03-21T01:19:33.583Z,48.13
2019-03-21T01:24:35.700Z,48.17
2019-03-21T01:29:37.846Z,48.15
2019-03-21T01:34:39.993Z,48.31
2019-03-21T01:39:42.173Z,48.32
2019-03-21T01:44:44.304Z,48.36
2019-03-21T01:49:46.425Z,48.40
2019-03-21T01:54:48.547Z,48.48
2019-03-21T01:59:50.778Z,48.60
2019-03-21T02:04:52.932Z,48.64
2019-03-21T02:09:55.049Z,48.67
2019-03-21T02:14:57.156Z,48.83
2019-03-21T02:19:59.303Z,48.85
2019-03-21T02:25:01.450Z,48.82
2019-03-21T02:30:05.713Z,48.98
2019-03-21T02:35:07.967Z,48.90
2019-03-21T02:40:12.958Z,48.91
2019-03-21T02:45:15.268Z,48.98
2019-03-21T02:50:23.458Z,49.27
2019-03-21T02:55:25.798Z,49.38
2019-03-21T03:00:28.329Z,49.50
2019-03-21T03:05:30.655Z,49.57
2019-03-21T03:10:35.563Z,49.53
2019-03-21T03:15:37.814Z,49.62
2019-03-21T03:20:39.992Z,49.86
2019-03-21T03:25:42.209Z,49.92
2019-03-21T03:30:44.465Z,49.91
2019-03-21T03:35:46.595Z,50.12
2019-03-21T03:40:51.661Z,50.13
2019-03-21T03:45:53.889Z,50.20
2019-03-21T03:50:56.028Z,50.41
2019-03-21T03:55:58.212Z,50.58
2019-03-21T04:01:00.566Z,50.66
2019-03-21T04:06:02.888Z,50.62
2019-03-21T04:11:05.184Z,50.82
2019-03-21T04:16:07.362Z,51.02
2019-03-21T04:21:09.614Z,51.21
2019-03-21T04:26:24.403Z,51.23
2019-03-21T04:31:26.523Z,51.35
2019-03-21T04:36:28.707Z,51.63
2019-03-21T04:41:30.855Z,51.72
2019-03-21T04:46:33.116Z,51.69
2019-03-21T04:51:35.260Z,51.57
2019-03-21T04:56:37.372Z,51.75
2019-03-21T05:01:39.488Z,51.94
2019-03-21T05:06:41.709Z,52.03
2019-03-21T05:11:43.827Z,52.20
2019-03-21T05:16:45.958Z,52.13
2019-03-21T05:21:48.105Z,52.05
2019-03-21T05:26:50.338Z,51.93
2019-03-21T05:31:52.453Z,51.92
2019-03-21T05:36:54.555Z,51.71
2019-03-21T05:41:56.663Z,51.65
2019-03-21T05:46:58.956Z,51.54
2019-03-21T05:52:01.057Z,51.38
2019-03-21T05:57:03.288Z,51.48
2019-03-21T06:02:08.079Z,51.49
2019-03-21T06:07:20.260Z,51.51
2019-03-21T06:12:22.385Z,51.47
2019-03-21T06:17:24.720Z,51.09
2019-03-21T06:23:07.824Z,50.87
2019-03-21T06:28:09.911Z,50.82
2019-03-21T06:33:12.014Z,50.64
2019-03-21T06:38:14.102Z,50.58
2019-03-21T06:43:16.177Z,50.49
2019-03-21T06:48:18.283Z,50.44
2019-03-21T06:53:20.376Z,50.32
2019-03-21T06:58:22.473Z,50.52
2019-03-21T07:03:24.609Z,50.39
2019-03-21T07:08:26.834Z,50.25
2019-03-21T07:13:29.043Z,50.20
2019-03-21T07:18:31.117Z,50.29
2019-03-21T07:23:33.207Z,50.37
2019-03-21T07:28:35.443Z,50.48
2019-03-21T07:33:37.537Z,50.40
2019-03-21T07:38:39.648Z,50.22
2019-03-21T07:43:41.797Z,50.24
2019-03-21T07:48:44.051Z,50.25
2019-03-21T07:53:46.256Z,50.22
2019-03-21T07:58:48.337Z,50.16
2019-03-21T08:03:50.444Z,50.14
2019-03-21T08:08:52.559Z,50.19
2019-03-21T08:13:54.666Z,50.16
2019-03-21T08:18:56.787Z,50.15
2019-03-21T08:23:58.878Z,50.06
2019-03-21T08:29:01.205Z,50.04
2019-03-21T08:34:03.549Z,49.98
2019-03-21T08:39:07.176Z,50.00
2019-03-21T08:44:09.395Z,50.09
2019-03-21T08:49:11.578Z,50.14
2019-03-21T08:54:13.734Z,50.21
2019-03-21T08:59:15.974Z,50.29
2019-03-21T09:04:18.109Z,50.30
2019-03-21T09:09:20.349Z,50.28
2019-03-21T09:14:22.494Z,50.30
2019-03-21T09:19:24.712Z,50.25
2019-03-21T09:24:26.856Z,50.28
2019-03-21T09:29:28.990Z,50.35
2019-03-21T09:34:31.233Z,50.41
2019-03-21T09:39:33.463Z,50.46
2019-03-21T09:44:35.549Z,50.46
2019-03-21T09:49:38.119Z,50.42
2019-03-21T09:54:40.740Z,50.35
2019-03-21T09:59:43.027Z,50.38
2019-03-21T10:04:45.367Z,50.41
2019-03-21T10:09:47.515Z,50.46
2019-03-21T10:14:49.868Z,50.52
2019-03-21T10:19:52.125Z,50.46
2019-03-21T10:24:54.567Z,50.48
2019-03-21T10:29:56.697Z,50.46
2019-03-21T10:34:58.768Z,50.43
2019-03-21T10:40:00.894Z,50.29
2019-03-21T10:45:03.846Z,50.15
2019-03-21T10:50:05.942Z,50.01
2019-03-21T10:55:08.204Z,49.87
2019-03-21T11:00:10.563Z,49.61
2019-03-21T11:05:12.717Z,49.37
2019-03-21T11:10:14.921Z,49.14
2019-03-21T11:15:17.239Z,48.90
2019-03-21T11:20:33.424Z,48.83
2019-03-21T11:25:35.869Z,48.67
2019-03-21T11:30:39.633Z,48.26
2019-03-21T11:35:41.857Z,45.00
2019-03-21T11:40:44.064Z,33.76
2019-03-21T11:45:47.844Z,28.41
2019-03-21T11:50:50.416Z,26.06
2019-03-21T11:55:52.658Z,24.77
2019-03-21T12:00:54.722Z,24.31
2019-03-21T12:05:57.095Z,24.69
2019-03-21T12:10:59.552Z,27.42
2019-03-21T12:16:01.881Z,29.57
2019-03-21T12:21:04.012Z,29.30
2019-03-21T12:26:06.455Z,30.54
2019-03-21T12:31:08.592Z,32.15
2019-03-21T12:36:10.869Z,32.96
2019-03-21T12:41:13.175Z,34.35
2019-03-21T12:46:15.378Z,35.29
2019-03-21T12:51:17.607Z,36.45
2019-03-21T12:56:19.991Z,37.37
2019-03-21T13:01:22.247Z,37.26
2019-03-21T13:06:24.404Z,37.00
2019-03-21T13:11:26.629Z,37.21
2019-03-21T13:16:28.780Z,37.38
2019-03-21T13:21:30.916Z,37.53
2019-03-21T13:26:33.262Z,37.81
2019-03-21T13:31:35.392Z,37.59
2019-03-21T13:36:37.558Z,37.93
2019-03-21T13:41:39.832Z,38.34
2019-03-21T13:46:41.934Z,38.33
2019-03-21T13:51:44.120Z,38.16
2019-03-21T13:56:46.370Z,38.29
2019-03-21T14:01:48.602Z,38.55
2019-03-21T14:06:50.924Z,38.94
2019-03-21T14:11:53.050Z,39.23
2019-03-21T14:16:55.316Z,39.16
2019-03-21T14:21:57.517Z,38.75
2019-03-21T14:26:59.748Z,38.65
2019-03-21T14:32:02.170Z,38.78
2019-03-21T14:37:04.302Z,38.87
2019-03-21T14:42:06.406Z,38.88
2019-03-21T14:47:08.605Z,39.00
2019-03-21T14:52:10.836Z,39.10
2019-03-21T14:57:13.049Z,39.30
2019-03-21T15:02:15.379Z,39.32
2019-03-21T15:07:18.727Z,39.52
2019-03-21T15:12:21.082Z,39.77
2019-03-21T15:17:23.192Z,39.89
2019-03-21T15:22:25.477Z,39.35
2019-03-21T15:27:31.027Z,39.06
2019-03-21T15:32:33.268Z,38.78
2019-03-21T15:37:35.494Z,38.25
2019-03-21T15:42:37.809Z,37.93
2019-03-21T15:47:40.584Z,37.74
2019-03-21T15:52:43.009Z,37.48
2019-03-21T15:57:45.107Z,36.95
2019-03-21T16:08:00.530Z,36.29
2019-03-21T16:13:03.064Z,36.52
2019-03-21T16:18:05.432Z,35.96
2019-03-21T16:28:36.844Z,32.71
2019-03-21T16:33:48.976Z,31.44
2019-03-21T16:38:56.749Z,32.49
2019-03-21T16:43:59.189Z,32.28
2019-03-21T16:49:01.474Z,32.20
2019-03-21T16:54:03.717Z,32.30
2019-03-21T16:59:06.036Z,32.59
2019-03-21T17:04:08.200Z,34.12
2019-03-21T17:09:10.335Z,37.08
2019-03-21T17:14:12.747Z,39.08
2019-03-21T17:19:15.093Z,41.45
2019-03-21T17:24:28.431Z,42.60
2019-03-21T17:29:21.544Z,43.32
2019-03-21T17:34:23.876Z,44.01
2019-03-21T17:39:26.085Z,44.32
2019-03-21T17:44:28.399Z,44.59
2019-03-21T17:49:30.788Z,44.88
2019-03-21T17:54:41.412Z,45.15
2019-03-21T17:59:38.856Z,45.59
2019-03-21T18:09:48.113Z,45.98
2019-03-21T18:24:57.296Z,46.44
2019-03-21T18:29:59.616Z,46.72
2019-03-21T18:35:02.142Z,46.91
2019-03-21T18:40:04.783Z,47.08
2019-03-21T18:45:07.123Z,47.15
2019-03-21T18:50:09.686Z,47.26
2019-03-21T18:55:11.931Z,47.47
2019-03-21T19:00:14.227Z,47.47
2019-03-21T19:05:16.477Z,47.76
2019-03-21T19:10:18.694Z,47.76
2019-03-21T19:15:20.892Z,48.12
2019-03-21T19:20:23.195Z,48.41
2019-03-21T19:25:25.310Z,48.33
2019-03-21T19:30:27.490Z,48.34
2019-03-21T19:35:29.564Z,48.49
2019-03-21T19:40:31.692Z,48.79
2019-03-21T19:45:33.821Z,48.77
2019-03-21T19:50:36.167Z,48.87
2019-03-21T19:55:38.273Z,49.20
2019-03-21T20:00:40.480Z,49.29
2019-03-21T20:05:42.710Z,49.26
2019-03-21T20:10:45.655Z,49.57
2019-03-21T20:15:47.884Z,49.84
2019-03-21T20:20:52.393Z,50.21
2019-03-21T20:25:54.608Z,50.58
2019-03-21T20:30:56.691Z,50.42
2019-03-21T20:35:58.778Z,50.38
2019-03-21T20:41:00.883Z,50.62
2019-03-21T20:46:03.081Z,50.82
2019-03-21T20:51:05.212Z,50.91
2019-03-21T20:56:07.472Z,51.02
2019-03-21T21:01:09.650Z,51.34
2019-03-21T21:06:11.772Z,51.17
2019-03-21T21:11:13.915Z,51.03
2019-03-21T21:16:16.134Z,51.24
2019-03-21T21:21:18.412Z,51.47
2019-03-21T21:26:20.613Z,51.57
2019-03-21T21:31:22.716Z,51.76
2019-03-21T21:36:24.839Z,51.80
2019-03-21T21:41:27.037Z,52.15
2019-03-21T21:46:29.302Z,52.26
2019-03-21T21:51:31.398Z,52.37
2019-03-21T21:56:33.506Z,52.49
2019-03-21T22:01:35.618Z,52.56
2019-03-21T22:06:37.688Z,52.75
2019-03-21T22:11:39.910Z,52.73
2019-03-21T22:16:42.015Z,52.53
2019-03-21T22:21:44.225Z,52.64
2019-03-21T22:26:46.330Z,52.92
2019-03-21T22:31:49.510Z,53.00
2019-03-21T22:36:51.615Z,52.99
2019-03-21T22:41:53.782Z,53.33
2019-03-21T22:46:55.900Z,53.44
2019-03-21T22:51:58.133Z,53.48
2019-03-21T22:57:00.255Z,53.54
2019-03-21T23:02:02.393Z,53.66
2019-03-21T23:07:04.513Z,53.86
2019-03-21T23:12:06.598Z,54.15
2019-03-21T23:17:08.833Z,54.22
2019-03-21T23:22:10.935Z,54.64
2019-03-21T23:27:13.200Z,54.63
2019-03-21T23:32:15.280Z,54.59
2019-03-21T23:38:33.607Z,54.62
2019-03-21T23:43:35.685Z,54.68
2019-03-21T23:48:37.752Z,55.37
2019-03-21T23:53:39.837Z,55.23
2019-03-21T23:58:41.965Z,54.76
